createdAt,value
2017-10-23T00:01:05.164Z,95874.11
2017-10-23T00:03:32.731Z,95875.20
2017-10-23T00:06:00.265Z,95876.36
2017-10-23T00:08:27.803Z,95880.84
2017-10-23T00:10:55.372Z,95882.77
2017-10-23T00:13:22.945Z,95879.38
2017-10-23T00:15:50.527Z,95879.90
2017-10-23T00:18:18.069Z,95879.86
2017-10-23T00:20:45.604Z,95879.13
2017-10-23T00:23:13.142Z,95875.02
2017-10-23T00:25:40.709Z,95869.80
2017-10-23T00:28:08.325Z,95864.22
2017-10-23T00:30:35.856Z,95870.95
2017-10-23T00:33:03.426Z,95866.09
2017-10-23T00:35:30.993Z,95856.00
2017-10-23T00:37:58.541Z,95857.57
2017-10-23T00:40:26.084Z,95854.52
2017-10-23T00:42:53.641Z,95848.74
2017-10-23T00:45:21.185Z,95839.69
2017-10-23T00:47:48.754Z,95828.77
2017-10-23T00:50:16.283Z,95832.08
2017-10-23T00:52:43.854Z,95832.12
2017-10-23T00:55:11.450Z,95824.41
2017-10-23T00:57:38.999Z,95823.66
2017-10-23T01:00:06.688Z,95814.88
2017-10-23T01:02:34.252Z,95829.93
2017-10-23T01:05:01.804Z,95826.80
2017-10-23T01:07:29.354Z,95822.39
2017-10-23T01:09:56.957Z,95818.65
2017-10-23T01:12:24.538Z,95827.38
2017-10-23T01:14:52.074Z,95838.80
2017-10-23T01:17:19.631Z,95841.30
2017-10-23T01:19:47.196Z,95834.62
2017-10-23T01:22:14.743Z,95836.13
2017-10-23T01:24:42.285Z,95837.75
2017-10-23T01:27:09.861Z,95841.11
2017-10-23T01:29:37.425Z,95841.36
2017-10-23T01:32:04.962Z,95843.67
2017-10-23T01:34:32.518Z,95848.67
2017-10-23T01:37:00.085Z,95840.70
2017-10-23T01:39:27.639Z,95837.10
2017-10-23T01:41:55.193Z,95834.05
2017-10-23T01:44:22.729Z,95837.06
2017-10-23T01:46:50.291Z,95828.23
2017-10-23T01:49:17.839Z,95823.25
2017-10-23T01:51:45.361Z,95824.52
2017-10-23T01:54:12.924Z,95815.69
2017-10-23T01:56:40.487Z,95822.70
2017-10-23T01:59:08.022Z,95815.69
2017-10-23T02:01:35.976Z,95822.17
2017-10-23T02:04:04.025Z,95829.89
2017-10-23T02:06:31.955Z,95832.63
2017-10-23T02:08:59.504Z,95828.50
2017-10-23T02:11:27.151Z,95829.94
2017-10-23T02:13:54.712Z,95829.78
2017-10-23T02:16:23.108Z,95833.02
2017-10-23T02:18:50.648Z,95837.02
2017-10-23T02:21:18.194Z,95837.61
2017-10-23T02:23:45.723Z,95840.50
2017-10-23T02:26:13.249Z,95841.05
2017-10-23T02:28:40.808Z,95839.46
2017-10-23T02:31:08.477Z,95839.25
2017-10-23T02:33:36.029Z,95846.36
2017-10-23T02:36:03.884Z,95843.39
2017-10-23T02:38:31.502Z,95840.91
2017-10-23T02:40:59.040Z,95847.64
2017-10-23T02:43:26.710Z,95846.16
2017-10-23T02:45:54.275Z,95849.89
2017-10-23T02:48:21.871Z,95847.95
2017-10-23T02:50:49.433Z,95850.70
2017-10-23T02:53:17.552Z,95849.50
2017-10-23T02:55:45.092Z,95847.81
2017-10-23T02:58:12.656Z,95850.11
2017-10-23T03:00:40.224Z,95852.92
2017-10-23T03:03:07.764Z,95851.64
2017-10-23T03:05:35.303Z,95850.11
2017-10-23T03:08:02.875Z,95855.09
2017-10-23T03:10:30.447Z,95864.20
2017-10-23T03:12:58.077Z,95867.70
2017-10-23T03:15:25.747Z,95867.48
2017-10-23T03:17:53.299Z,95862.05
2017-10-23T03:20:20.838Z,95865.91
2017-10-23T03:22:48.407Z,95861.12
2017-10-23T03:25:15.941Z,95868.17
2017-10-23T03:27:43.530Z,95864.38
2017-10-23T03:30:11.250Z,95858.08
2017-10-23T03:32:38.791Z,95855.94
2017-10-23T03:35:06.360Z,95864.27
2017-10-23T03:37:33.968Z,95861.15
2017-10-23T03:40:01.529Z,95858.79
2017-10-23T03:42:29.115Z,95856.23
2017-10-23T03:44:56.665Z,95858.45
2017-10-23T03:47:24.207Z,95860.36
2017-10-23T03:49:51.760Z,95869.14
2017-10-23T03:52:19.452Z,95864.86
2017-10-23T03:54:47.065Z,95860.17
2017-10-23T03:57:14.637Z,95865.39
2017-10-23T03:59:42.187Z,95864.34
2017-10-23T04:02:09.744Z,95864.08
2017-10-23T04:04:37.311Z,95860.41
2017-10-23T04:07:04.931Z,95869.18
2017-10-23T04:09:32.513Z,95868.88
2017-10-23T04:12:00.088Z,95864.23
2017-10-23T04:14:27.891Z,95867.94
2017-10-23T04:16:55.496Z,95867.67
2017-10-23T04:19:23.071Z,95871.66
2017-10-23T04:21:50.636Z,95863.09
2017-10-23T04:24:18.253Z,95861.78
2017-10-23T04:26:45.845Z,95858.86
2017-10-23T04:29:13.404Z,95851.92
2017-10-23T04:31:40.995Z,95854.33
2017-10-23T04:34:08.550Z,95862.09
2017-10-23T04:36:36.115Z,95857.25
2017-10-23T04:39:03.747Z,95861.60
2017-10-23T04:41:31.423Z,95862.83
2017-10-23T04:43:58.969Z,95861.15
2017-10-23T04:46:26.530Z,95858.15
2017-10-23T04:48:54.109Z,95854.73
2017-10-23T04:51:21.666Z,95860.63
2017-10-23T04:53:49.206Z,95862.61
2017-10-23T04:56:16.752Z,95858.38
2017-10-23T04:58:44.293Z,95857.66
2017-10-23T05:01:11.832Z,95866.99
2017-10-23T05:03:39.393Z,95861.55
2017-10-23T05:06:06.929Z,95860.98
2017-10-23T05:08:34.501Z,95872.47
2017-10-23T05:11:02.068Z,95867.59
2017-10-23T05:13:29.686Z,95870.10
2017-10-23T05:15:57.234Z,95866.77
2017-10-23T05:18:24.772Z,95866.28
2017-10-23T05:20:52.384Z,95869.31
2017-10-23T05:23:19.950Z,95863.95
2017-10-23T05:25:47.496Z,95862.63
2017-10-23T05:28:15.229Z,95859.71
2017-10-23T05:30:42.785Z,95856.00
2017-10-23T05:33:10.438Z,95855.48
2017-10-23T05:35:38.634Z,95852.39
2017-10-23T05:38:06.213Z,95851.31
2017-10-23T05:40:33.778Z,95852.73
2017-10-23T05:43:01.469Z,95860.69
2017-10-23T05:45:29.541Z,95863.08
2017-10-23T05:47:57.117Z,95871.97
2017-10-23T05:50:24.677Z,95872.16
2017-10-23T05:52:52.227Z,95869.54
2017-10-23T05:55:19.750Z,95872.42
2017-10-23T06:00:20.946Z,95872.98
2017-10-23T06:02:48.544Z,95870.92
2017-10-23T06:05:16.109Z,95875.50
2017-10-23T06:07:44.244Z,95875.16
2017-10-23T06:10:11.845Z,95872.09
2017-10-23T06:12:40.045Z,95875.05
2017-10-23T06:15:07.707Z,95876.37
2017-10-23T06:17:35.299Z,95880.61
2017-10-23T06:20:02.878Z,95892.37
2017-10-23T06:22:30.444Z,95883.05
2017-10-23T06:24:58.011Z,95889.53
2017-10-23T06:27:25.568Z,95885.03
2017-10-23T06:29:53.110Z,95888.36
2017-10-23T06:32:20.670Z,95892.37
2017-10-23T06:34:48.249Z,95896.48
2017-10-23T06:37:15.777Z,95902.85
2017-10-23T06:39:43.469Z,95902.29
2017-10-23T06:42:11.014Z,95910.13
2017-10-23T06:44:38.978Z,95898.88
2017-10-23T06:47:07.454Z,95905.86
2017-10-23T06:49:35.009Z,95904.65
2017-10-23T06:52:02.535Z,95907.02
2017-10-23T06:54:30.117Z,95906.08
2017-10-23T06:56:57.657Z,95904.58
2017-10-23T06:59:25.208Z,95900.27
2017-10-23T07:01:52.786Z,95907.14
2017-10-23T07:04:20.336Z,95903.02
2017-10-23T07:06:47.870Z,95904.74
2017-10-23T07:09:15.460Z,95908.37
2017-10-23T07:11:42.988Z,95909.54
2017-10-23T07:14:10.625Z,95915.58
2017-10-23T07:16:38.172Z,95912.36
2017-10-23T07:19:05.871Z,95914.34
2017-10-23T07:21:33.396Z,95915.39
2017-10-23T07:24:00.939Z,95917.64
2017-10-23T07:26:28.474Z,95925.00
2017-10-23T07:28:56.023Z,95925.37
2017-10-23T07:31:23.921Z,95920.68
2017-10-23T07:33:51.450Z,95925.86
2017-10-23T07:36:19.144Z,95928.52
2017-10-23T07:38:46.660Z,95937.30
2017-10-23T07:41:14.230Z,95936.95
2017-10-23T07:43:41.763Z,95929.42
2017-10-23T07:46:09.349Z,95930.09
2017-10-23T07:48:36.884Z,95930.44
2017-10-23T07:51:04.433Z,95930.40
2017-10-23T07:53:31.955Z,95929.06
2017-10-23T07:55:59.483Z,95927.19
2017-10-23T07:58:27.178Z,95932.44
2017-10-23T08:00:54.714Z,95939.03
2017-10-23T08:03:22.313Z,95931.87
2017-10-23T08:05:49.837Z,95934.50
2017-10-23T08:08:17.359Z,95934.84
2017-10-23T08:10:44.879Z,95936.19
2017-10-23T08:13:12.431Z,95939.57
2017-10-23T08:15:40.509Z,95942.02
2017-10-23T08:18:08.040Z,95942.69
2017-10-23T08:20:35.602Z,95934.08
2017-10-23T08:23:03.136Z,95940.77
2017-10-23T08:25:30.649Z,95945.95
2017-10-23T08:27:58.174Z,95940.91
2017-10-23T08:30:25.754Z,95934.42
2017-10-23T08:32:53.273Z,95936.40
2017-10-23T08:35:20.788Z,95939.48
2017-10-23T08:37:48.338Z,95945.36
2017-10-23T08:40:15.847Z,95945.05
2017-10-23T08:42:43.359Z,95939.89
2017-10-23T08:45:10.900Z,95943.81
2017-10-23T08:47:38.415Z,95935.77
2017-10-23T08:50:05.936Z,95931.03
2017-10-23T08:52:33.464Z,95928.84
2017-10-23T08:55:01.010Z,95928.84
2017-10-23T08:57:28.946Z,95936.16
2017-10-23T08:59:56.465Z,95934.35
2017-10-23T09:02:24.009Z,95931.54
2017-10-23T09:04:51.530Z,95926.91
2017-10-23T09:07:19.205Z,95939.38
2017-10-23T09:09:46.755Z,95939.38
2017-10-23T09:12:14.272Z,95937.23
2017-10-23T09:14:41.809Z,95928.95
2017-10-23T09:17:09.644Z,95934.22
2017-10-23T09:19:37.182Z,95921.28
2017-10-23T09:22:04.708Z,95932.22
2017-10-23T09:24:32.247Z,95932.17
2017-10-23T09:26:59.784Z,95930.52
2017-10-23T09:29:27.326Z,95925.48
2017-10-23T09:31:54.870Z,95929.48
2017-10-23T09:34:22.412Z,95929.04
2017-10-23T09:36:49.955Z,95927.30
2017-10-23T09:39:17.639Z,95927.45
2017-10-23T09:41:45.153Z,95926.19
2017-10-23T09:44:12.666Z,95918.38
2017-10-23T09:46:40.222Z,95927.34
2017-10-23T09:49:07.870Z,95923.44
2017-10-23T09:51:35.394Z,95930.59
2017-10-23T09:54:03.089Z,95921.09
2017-10-23T09:56:31.030Z,95930.39
2017-10-23T09:58:58.597Z,95926.50
2017-10-23T10:01:26.248Z,95931.79
2017-10-23T10:03:53.810Z,95933.52
2017-10-23T10:06:21.451Z,95932.70
2017-10-23T10:08:49.016Z,95929.31
2017-10-23T10:11:17.225Z,95924.64
2017-10-23T10:13:45.104Z,95927.29
2017-10-23T10:16:13.195Z,95931.25
2017-10-23T10:18:41.236Z,95926.34
2017-10-23T10:21:08.869Z,95931.83
2017-10-23T10:23:36.584Z,95925.31
2017-10-23T10:26:04.190Z,95928.60
2017-10-23T10:28:31.783Z,95926.48
2017-10-23T10:30:59.332Z,95928.75
2017-10-23T10:33:26.876Z,95921.98
2017-10-23T10:35:54.433Z,95926.09
2017-10-23T10:38:21.980Z,95927.55
2017-10-23T10:40:50.154Z,95927.38
2017-10-23T10:43:17.702Z,95926.55
2017-10-23T10:45:45.943Z,95925.79
2017-10-23T10:48:13.523Z,95930.51
2017-10-23T10:50:41.084Z,95933.84
2017-10-23T10:53:08.634Z,95932.03
2017-10-23T10:55:36.168Z,95936.28
2017-10-23T10:58:03.755Z,95939.47
2017-10-23T11:00:31.840Z,95945.58
2017-10-23T11:02:59.394Z,95936.36
2017-10-23T11:05:28.016Z,95932.78
2017-10-23T11:07:55.548Z,95931.26
2017-10-23T11:10:23.089Z,95937.19
2017-10-23T11:12:50.668Z,95937.58
2017-10-23T11:15:18.309Z,95943.22
2017-10-23T11:17:45.867Z,95951.88
2017-10-23T11:20:13.466Z,95949.29
2017-10-23T11:22:41.015Z,95949.60
2017-10-23T11:25:08.753Z,95947.64
2017-10-23T11:27:36.393Z,95949.21
2017-10-23T11:30:03.934Z,95954.25
2017-10-23T11:32:31.493Z,95947.67
2017-10-23T11:34:59.021Z,95946.41
2017-10-23T11:37:26.580Z,95948.09
2017-10-23T11:39:54.141Z,95944.31
2017-10-23T11:42:21.669Z,95951.31
2017-10-23T11:44:49.197Z,95946.20
2017-10-23T11:47:16.822Z,95944.08
2017-10-23T11:49:44.374Z,95950.51
2017-10-23T11:52:11.914Z,95944.45
2017-10-23T11:54:39.489Z,95950.62
2017-10-23T11:57:07.033Z,95953.23
2017-10-23T11:59:34.584Z,95953.95
2017-10-23T12:02:02.145Z,95956.52
2017-10-23T12:04:29.685Z,95960.92
2017-10-23T12:06:57.262Z,95959.56
2017-10-23T12:09:24.866Z,95956.27
2017-10-23T12:14:26.349Z,95959.16
2017-10-23T12:16:53.901Z,95964.63
2017-10-23T12:19:21.472Z,95954.31
2017-10-23T12:21:49.040Z,95953.19
2017-10-23T12:24:16.587Z,95952.73
2017-10-23T12:26:44.118Z,95950.23
2017-10-23T12:29:11.686Z,95943.15
2017-10-23T12:31:39.221Z,95952.06
2017-10-23T12:34:06.766Z,95946.81
2017-10-23T12:36:34.322Z,95956.63
2017-10-23T12:39:01.864Z,95960.90
2017-10-23T12:41:29.404Z,95962.30
2017-10-23T12:43:56.945Z,95962.67
2017-10-23T12:46:24.538Z,95957.89
2017-10-23T12:48:52.073Z,95962.20
2017-10-23T12:51:19.625Z,95959.54
2017-10-23T12:53:47.153Z,95953.00
2017-10-23T12:56:14.701Z,95959.14
2017-10-23T12:58:42.246Z,95960.02
2017-10-23T13:01:09.785Z,95960.48
2017-10-23T13:03:37.391Z,95966.14
2017-10-23T13:06:04.917Z,95970.54
2017-10-23T13:08:32.442Z,95969.55
2017-10-23T13:11:00.025Z,95968.92
2017-10-23T13:13:27.642Z,95975.94
2017-10-23T13:15:55.204Z,95972.88
2017-10-23T13:18:23.264Z,95977.57
2017-10-23T13:20:50.785Z,95983.47
2017-10-23T13:23:18.336Z,95972.23
2017-10-23T13:25:45.901Z,95975.30
2017-10-23T13:28:13.467Z,95979.03
2017-10-23T13:30:40.995Z,95991.22
2017-10-23T13:33:08.722Z,95986.27
2017-10-23T13:35:36.298Z,95997.08
2017-10-23T13:38:03.835Z,96001.76
2017-10-23T13:40:31.396Z,95989.31
2017-10-23T13:42:58.925Z,96008.56
2017-10-23T13:45:26.707Z,96012.63
2017-10-23T13:47:54.329Z,96006.13
2017-10-23T13:50:21.881Z,96005.20
2017-10-23T13:52:49.437Z,96009.54
2017-10-23T13:55:16.992Z,96013.67
2017-10-23T13:57:44.532Z,96013.18
2017-10-23T14:00:12.062Z,96015.45
2017-10-23T14:02:39.622Z,96015.16
2017-10-23T14:05:07.164Z,96013.88
2017-10-23T14:07:34.739Z,96030.44
2017-10-23T14:10:02.367Z,96029.27
2017-10-23T14:12:29.915Z,96034.80
2017-10-23T14:14:57.478Z,96044.22
2017-10-23T14:17:25.092Z,96042.81
2017-10-23T14:19:52.790Z,96042.66
2017-10-23T14:22:20.361Z,96051.56
2017-10-23T14:24:47.930Z,96046.72
2017-10-23T14:27:15.558Z,96047.87
2017-10-23T14:29:43.301Z,96054.61
2017-10-23T14:32:10.958Z,96049.67
2017-10-23T14:34:38.528Z,96051.91
2017-10-23T14:37:06.149Z,96056.70
2017-10-23T14:39:33.732Z,96059.52
2017-10-23T14:42:01.324Z,96055.73
2017-10-23T14:44:28.960Z,96056.55
2017-10-23T14:46:56.609Z,96058.25
2017-10-23T14:49:24.263Z,96055.52
2017-10-23T14:51:51.903Z,96058.57
2017-10-23T14:54:19.567Z,96063.61
2017-10-23T14:56:47.681Z,96078.14
2017-10-23T14:59:15.323Z,96085.41
2017-10-23T15:01:43.240Z,96085.03
2017-10-23T15:04:10.808Z,96086.14
2017-10-23T15:06:38.526Z,96084.53
2017-10-23T15:09:06.316Z,96095.61
2017-10-23T15:11:33.865Z,96094.33
2017-10-23T15:14:01.449Z,96099.19
2017-10-23T15:16:29.026Z,96100.20
2017-10-23T15:18:56.586Z,96107.98
2017-10-23T15:21:24.238Z,96115.05
2017-10-23T15:23:51.787Z,96114.45
2017-10-23T15:26:19.572Z,96125.20
2017-10-23T15:28:47.529Z,96125.77
2017-10-23T15:31:15.063Z,96129.89
2017-10-23T15:33:42.609Z,96128.39
2017-10-23T15:36:10.287Z,96131.28
2017-10-23T15:38:37.816Z,96135.45
2017-10-23T15:41:05.458Z,96140.42
2017-10-23T15:43:33.074Z,96141.33
2017-10-23T15:48:34.463Z,96152.03
2017-10-23T15:51:02.025Z,96149.93
2017-10-23T15:53:30.632Z,96146.81
2017-10-23T15:55:58.231Z,96149.66
2017-10-23T15:58:25.787Z,96153.13
2017-10-23T16:00:53.338Z,96157.45
2017-10-23T16:03:20.943Z,96152.93
2017-10-23T16:05:48.438Z,96152.30
2017-10-23T16:08:16.011Z,96158.80
2017-10-23T16:10:43.583Z,96163.38
2017-10-23T16:13:11.445Z,96159.36
2017-10-23T16:15:40.387Z,96163.27
2017-10-23T16:18:07.973Z,96162.36
2017-10-23T16:20:35.512Z,96167.22
2017-10-23T16:23:03.073Z,96168.80
2017-10-23T16:25:30.706Z,96162.67
2017-10-23T16:27:58.257Z,96164.52
2017-10-23T16:30:25.864Z,96166.55
2017-10-23T16:32:53.555Z,96167.07
2017-10-23T16:35:21.125Z,96168.50
2017-10-23T16:37:48.720Z,96173.35
2017-10-23T16:40:16.323Z,96172.86
2017-10-23T16:42:43.908Z,96176.20
2017-10-23T16:45:11.837Z,96184.77
2017-10-23T16:47:39.364Z,96184.55
2017-10-23T16:50:06.974Z,96192.25
2017-10-23T16:52:34.517Z,96189.66
2017-10-23T16:55:02.076Z,96195.14
2017-10-23T16:57:29.696Z,96196.20
2017-10-23T16:59:57.249Z,96195.81
2017-10-23T17:02:24.799Z,96209.11
2017-10-23T17:04:52.397Z,96220.57
2017-10-23T17:07:19.984Z,96213.19
2017-10-23T17:09:47.528Z,96213.80
2017-10-23T17:12:15.156Z,96216.27
2017-10-23T17:14:42.757Z,96221.84
2017-10-23T17:17:11.384Z,96221.48
2017-10-23T17:19:39.029Z,96221.34
2017-10-23T17:22:06.674Z,96226.30
2017-10-23T17:24:34.249Z,96223.58
2017-10-23T17:27:01.843Z,96222.91
2017-10-23T17:29:29.398Z,96227.46
2017-10-23T17:31:56.968Z,96228.28
2017-10-23T17:34:24.548Z,96236.66
2017-10-23T17:36:52.152Z,96239.11
2017-10-23T17:39:19.807Z,96238.38
2017-10-23T17:41:47.469Z,96241.99
2017-10-23T17:44:15.040Z,96246.56
2017-10-23T17:46:42.610Z,96247.23
2017-10-23T17:49:10.686Z,96249.73
2017-10-23T17:51:38.279Z,96243.66
2017-10-23T17:54:06.141Z,96248.73
2017-10-23T17:56:33.818Z,96246.73
2017-10-23T17:59:01.373Z,96250.70
2017-10-23T18:01:29.687Z,96254.46
2017-10-23T18:03:57.422Z,96255.28
2017-10-23T18:06:24.978Z,96257.84
2017-10-23T18:08:52.745Z,96259.47
2017-10-23T18:11:20.474Z,96262.02
2017-10-23T18:13:48.076Z,96266.42
2017-10-23T18:16:15.683Z,96262.99
2017-10-23T18:18:43.251Z,96259.25
2017-10-23T18:21:11.300Z,96258.75
2017-10-23T18:23:44.473Z,96273.49
2017-10-23T18:26:12.498Z,96272.95
2017-10-23T18:28:40.061Z,96278.62
2017-10-23T18:31:07.673Z,96273.51
2017-10-23T18:33:35.292Z,96279.28
2017-10-23T18:36:03.211Z,96280.13
2017-10-23T18:38:30.763Z,96279.11
2017-10-23T18:40:59.301Z,96282.63
2017-10-23T18:43:26.943Z,96290.30
2017-10-23T18:45:54.564Z,96292.17
2017-10-23T18:48:22.201Z,96296.99
2017-10-23T18:50:49.769Z,96301.90
2017-10-23T18:53:17.330Z,96308.24
2017-10-23T18:55:44.916Z,96306.88
2017-10-23T18:58:12.477Z,96307.86
2017-10-23T19:00:40.019Z,96314.47
2017-10-23T19:03:07.648Z,96308.56
2017-10-23T19:05:35.317Z,96312.55
2017-10-23T19:08:02.875Z,96319.56
2017-10-23T19:10:30.462Z,96322.25
2017-10-23T19:12:58.031Z,96323.55
2017-10-23T19:15:25.586Z,96330.14
2017-10-23T19:17:53.181Z,96324.36
2017-10-23T19:20:20.823Z,96327.51
2017-10-23T19:22:48.630Z,96333.55
2017-10-23T19:25:16.214Z,96326.48
2017-10-23T19:27:43.805Z,96337.23
2017-10-23T19:30:11.387Z,96344.31
2017-10-23T19:32:38.974Z,96346.66
2017-10-23T19:35:06.606Z,96351.90
2017-10-23T19:37:34.167Z,96359.11
2017-10-23T19:40:01.746Z,96363.70
2017-10-23T19:42:29.288Z,96357.94
2017-10-23T19:44:56.849Z,96362.67
2017-10-23T19:47:24.483Z,96357.56
2017-10-23T19:49:52.085Z,96366.50
2017-10-23T19:52:19.661Z,96368.94
2017-10-23T19:54:47.445Z,96364.28
2017-10-23T19:57:14.995Z,96367.28
2017-10-23T19:59:42.553Z,96363.75
2017-10-23T20:02:10.421Z,96366.17
2017-10-23T20:04:38.003Z,96368.24
2017-10-23T20:07:05.667Z,96369.85
2017-10-23T20:09:33.248Z,96368.06
2017-10-23T20:12:00.815Z,96365.78
2017-10-23T20:14:28.385Z,96368.00
2017-10-23T20:16:55.935Z,96373.52
2017-10-23T20:19:23.523Z,96373.17
2017-10-23T20:21:51.094Z,96374.08
2017-10-23T20:24:18.704Z,96375.98
2017-10-23T20:26:46.289Z,96373.84
2017-10-23T20:29:13.994Z,96370.81
2017-10-23T20:31:41.551Z,96375.29
2017-10-23T20:34:09.184Z,96375.70
2017-10-23T20:36:37.754Z,96383.91
2017-10-23T20:39:05.388Z,96388.84
2017-10-23T20:41:32.987Z,96393.19
2017-10-23T20:44:00.550Z,96395.30
2017-10-23T20:46:28.111Z,96388.23
2017-10-23T20:48:55.678Z,96390.58
2017-10-23T20:51:23.414Z,96392.42
2017-10-23T20:53:50.971Z,96394.00
2017-10-23T20:56:18.565Z,96396.31
2017-10-23T20:58:46.460Z,96402.14
2017-10-23T21:01:14.050Z,96390.14
2017-10-23T21:03:41.671Z,96398.31
2017-10-23T21:06:09.235Z,96396.28
2017-10-23T21:08:36.818Z,96410.16
2017-10-23T21:11:04.519Z,96412.92
2017-10-23T21:13:32.103Z,96416.20
2017-10-23T21:15:59.689Z,96416.06
2017-10-23T21:18:27.229Z,96423.20
2017-10-23T21:20:54.809Z,96428.86
2017-10-23T21:23:22.359Z,96430.78
2017-10-23T21:25:49.908Z,96431.33
2017-10-23T21:28:17.530Z,96424.02
2017-10-23T21:30:45.111Z,96428.16
2017-10-23T21:33:12.742Z,96437.20
2017-10-23T21:35:40.340Z,96437.86
2017-10-23T21:38:07.882Z,96441.52
2017-10-23T21:40:35.447Z,96445.97
2017-10-23T21:43:03.032Z,96443.31
2017-10-23T21:45:30.644Z,96445.04
2017-10-23T21:48:13.801Z,96450.85
2017-10-23T21:50:41.482Z,96444.68
2017-10-23T21:53:09.323Z,96459.56
2017-10-23T21:55:36.856Z,96465.43
2017-10-23T21:58:04.416Z,96465.30
2017-10-23T22:00:31.948Z,96471.16
2017-10-23T22:02:59.511Z,96470.44
2017-10-23T22:05:27.323Z,96474.52
2017-10-23T22:07:54.881Z,96475.13
2017-10-23T22:10:22.598Z,96480.52
2017-10-23T22:12:50.149Z,96483.70
2017-10-23T22:15:17.701Z,96486.05
2017-10-23T22:17:45.278Z,96488.29
2017-10-23T22:20:12.928Z,96493.50
2017-10-23T22:22:40.529Z,96493.09
2017-10-23T22:25:08.131Z,96497.44
2017-10-23T22:27:35.679Z,96496.88
2017-10-23T22:30:05.950Z,96498.75
2017-10-23T22:32:33.527Z,96503.48
2017-10-23T22:35:01.139Z,96504.59
2017-10-23T22:37:28.825Z,96509.25
2017-10-23T22:39:56.438Z,96504.66
2017-10-23T22:42:23.990Z,96512.32
2017-10-23T22:44:51.535Z,96512.63
2017-10-23T22:47:19.477Z,96518.82
2017-10-23T22:49:47.059Z,96528.08
2017-10-23T22:52:14.773Z,96525.17
2017-10-23T22:54:42.353Z,96522.55
2017-10-23T22:57:10.021Z,96525.73
2017-10-23T22:59:37.689Z,96520.38
2017-10-23T23:02:05.266Z,96518.79
2017-10-23T23:04:32.837Z,96531.22
2017-10-23T23:07:00.418Z,96529.22
2017-10-23T23:09:28.022Z,96524.76
2017-10-23T23:11:55.586Z,96529.69
2017-10-23T23:14:23.192Z,96528.86
2017-10-23T23:16:50.733Z,96532.07
2017-10-23T23:19:18.273Z,96534.56
2017-10-23T23:21:45.870Z,96534.78
2017-10-23T23:24:13.482Z,96533.32
2017-10-23T23:26:41.043Z,96534.87
2017-10-23T23:29:08.676Z,96530.31
2017-10-23T23:31:36.342Z,96529.80
2017-10-23T23:34:03.893Z,96528.62
2017-10-23T23:36:31.462Z,96537.80
2017-10-23T23:38:59.072Z,96535.38
2017-10-23T23:41:26.612Z,96532.75
2017-10-23T23:43:54.183Z,96539.27
2017-10-23T23:46:21.753Z,96541.14
2017-10-23T23:48:49.325Z,96539.33
2017-10-23T23:51:16.898Z,96542.37
2017-10-23T23:53:44.464Z,96541.98
2017-10-23T23:56:12.172Z,96544.50
2017-10-23T23:58:39.745Z,96554.52
